Union Deposit, Pennsylvania
Current Conditions -  °F | °C
As of 3:56 PM on Friday 19 Dec 2014 (Local Time) from KMDT Reporting Station
Few Clouds Few Clouds  
Wind Chill: 29°   Ceiling: Unl
Heat Index: 37°   Visibility: 10mi
Dew Point: 20°   Wind: 13mph
Humidity: 50%   Direction: 330°NNW
Pressure: 30.13"   Gusts: NA
Location:  40.2634°N, 76.626°W
Report Text: KMDT 192056Z 33011KT 10SM FEW040 03/M07 A3013 RMK AO2 SLP206 T00281067 53011
Loading
Personal Weather Stations






























Interactive Weather Map New forecast layout! Learn more

10-Day Weather Forecast

Advertisements
Track Severe Weather on mobile